createdAt,value
2018-09-20T00:00:57.659Z,0
2018-09-20T00:02:07.263Z,0
2018-09-20T00:03:17.106Z,0
2018-09-20T00:04:26.412Z,0
2018-09-20T00:05:36.584Z,0
2018-09-20T00:06:46.424Z,0
2018-09-20T00:08:01.994Z,0
2018-09-20T00:09:11.831Z,0
2018-09-20T00:10:21.673Z,0
2018-09-20T00:11:31.784Z,0
2018-09-20T00:12:41.352Z,0
2018-09-20T00:13:51.221Z,0
2018-09-20T00:15:00.792Z,0
2018-09-20T00:16:10.911Z,0
2018-09-20T00:17:20.516Z,0
2018-09-20T00:18:30.623Z,0
2018-09-20T00:19:40.741Z,0
2018-09-20T00:20:50.313Z,0
2018-09-20T00:22:00.420Z,0
2018-09-20T00:23:10.583Z,0
2018-09-20T00:24:20.934Z,0
2018-09-20T00:25:30.779Z,0
2018-09-20T00:26:40.081Z,0
2018-09-20T00:27:49.732Z,0
2018-09-20T00:28:59.843Z,0
2018-09-20T00:30:09.685Z,0
2018-09-20T00:31:19.252Z,0
2018-09-20T00:32:28.821Z,0
2018-09-20T00:33:38.386Z,0
2018-09-20T00:34:48.230Z,0
2018-09-20T00:35:58.340Z,0
2018-09-20T00:37:07.932Z,0
2018-09-20T00:38:17.782Z,0
2018-09-20T00:39:27.896Z,0
2018-09-20T00:40:37.741Z,0
2018-09-20T00:41:47.881Z,0
2018-09-20T00:42:57.453Z,0
2018-09-20T00:44:07.022Z,0
2018-09-20T00:45:16.866Z,0
2018-09-20T00:46:27.212Z,0
2018-09-20T00:47:37.323Z,0
2018-09-20T00:48:46.624Z,0
2018-09-20T00:49:56.501Z,0
2018-09-20T00:51:06.607Z,0
2018-09-20T00:52:16.177Z,0
2018-09-20T00:53:26.290Z,0
2018-09-20T00:54:36.131Z,0
2018-09-20T00:55:45.437Z,0
2018-09-20T00:56:55.281Z,0
2018-09-20T00:58:04.586Z,0
2018-09-20T00:59:14.155Z,0
2018-09-20T01:00:24.270Z,0
2018-09-20T01:01:34.147Z,0
2018-09-20T01:02:44.274Z,0
2018-09-20T01:03:53.854Z,0
2018-09-20T01:05:03.700Z,0
2018-09-20T01:06:13.837Z,0
2018-09-20T01:07:23.721Z,0
2018-09-20T01:08:33.557Z,0
2018-09-20T01:09:43.718Z,0
2018-09-20T01:10:53.591Z,0
2018-09-20T01:12:03.713Z,0
2018-09-20T01:13:13.283Z,0
2018-09-20T01:14:23.153Z,0
2018-09-20T01:15:32.993Z,0
2018-09-20T01:16:42.838Z,0
2018-09-20T01:17:52.678Z,0
2018-09-20T01:19:02.518Z,0
2018-09-20T01:20:12.628Z,0
2018-09-20T01:21:22.469Z,0
2018-09-20T01:22:32.586Z,0
2018-09-20T01:23:42.694Z,0
2018-09-20T01:24:52.588Z,0
2018-09-20T01:26:02.426Z,0
2018-09-20T01:27:12.274Z,0
2018-09-20T01:28:22.395Z,0
2018-09-20T01:29:32.237Z,0
2018-09-20T01:30:42.079Z,0
2018-09-20T01:31:51.650Z,0
2018-09-20T01:33:01.226Z,0
2018-09-20T01:34:11.067Z,0
2018-09-20T01:35:21.425Z,0
2018-09-20T01:36:31.272Z,0
2018-09-20T01:37:40.877Z,0
2018-09-20T01:38:50.962Z,0
2018-09-20T01:40:00.531Z,0
2018-09-20T01:41:10.374Z,0
2018-09-20T01:42:20.214Z,0
2018-09-20T01:43:30.336Z,0
2018-09-20T01:44:40.178Z,0
2018-09-20T01:45:50.283Z,0
2018-09-20T01:47:00.122Z,0
2018-09-20T01:48:09.959Z,0
2018-09-20T01:49:19.804Z,0
2018-09-20T01:50:29.527Z,0
2018-09-20T01:51:39.145Z,0
2018-09-20T01:52:48.719Z,0
2018-09-20T01:53:58.580Z,0
2018-09-20T01:55:07.885Z,0
2018-09-20T01:56:17.728Z,0
2018-09-20T01:57:27.292Z,0
2018-09-20T01:58:36.865Z,0
2018-09-20T01:59:47.036Z,0
2018-09-20T02:00:56.932Z,0
2018-09-20T02:02:06.509Z,0
2018-09-20T02:03:16.353Z,0
2018-09-20T02:04:25.925Z,0
2018-09-20T02:05:36.091Z,0
2018-09-20T02:06:45.438Z,0
2018-09-20T02:07:55.070Z,0
2018-09-20T02:09:04.637Z,0
2018-09-20T02:10:14.206Z,0
2018-09-20T02:11:24.314Z,0
2018-09-20T02:12:34.156Z,0
2018-09-20T02:13:44.319Z,0
2018-09-20T02:14:54.160Z,0
2018-09-20T02:16:03.735Z,0
2018-09-20T02:17:13.839Z,0
2018-09-20T02:18:23.686Z,0
2018-09-20T02:19:33.533Z,0
2018-09-20T02:20:43.408Z,0
2018-09-20T02:21:53.563Z,0
2018-09-20T02:23:03.408Z,0
2018-09-20T02:24:12.985Z,0
2018-09-20T02:25:22.555Z,0
2018-09-20T02:26:32.128Z,0
2018-09-20T02:27:42.245Z,0
2018-09-20T02:28:52.092Z,0
2018-09-20T02:30:01.953Z,0
2018-09-20T02:31:11.843Z,0
2018-09-20T02:32:21.964Z,0
2018-09-20T02:33:32.069Z,0
2018-09-20T02:34:41.960Z,0
2018-09-20T02:35:52.070Z,0
2018-09-20T02:37:02.195Z,0
2018-09-20T02:38:11.500Z,0
2018-09-20T02:39:20.531Z,0
2018-09-20T02:40:30.433Z,0
2018-09-20T02:41:40.015Z,0
2018-09-20T02:42:49.321Z,0
2018-09-20T02:43:58.661Z,0
2018-09-20T02:45:08.802Z,0
2018-09-20T02:46:18.909Z,0
2018-09-20T02:47:29.029Z,0
2018-09-20T02:48:38.328Z,0
2018-09-20T02:49:47.913Z,0
2018-09-20T02:50:57.486Z,0
2018-09-20T02:52:06.795Z,0
2018-09-20T02:53:16.915Z,0
2018-09-20T02:54:26.495Z,0
2018-09-20T02:55:36.069Z,0
2018-09-20T02:56:45.955Z,0
2018-09-20T02:57:55.531Z,0
2018-09-20T02:59:05.497Z,0
2018-09-20T03:00:15.519Z,0
2018-09-20T03:01:25.568Z,0
2018-09-20T03:02:34.877Z,0
2018-09-20T03:03:44.739Z,0
2018-09-20T03:04:54.590Z,0
2018-09-20T03:06:04.469Z,0
2018-09-20T03:07:13.769Z,0
2018-09-20T03:08:23.373Z,0
2018-09-20T03:09:33.226Z,0
2018-09-20T03:10:43.350Z,0
2018-09-20T03:11:52.973Z,0
2018-09-20T03:13:03.099Z,0
2018-09-20T03:14:12.696Z,0
2018-09-20T03:15:22.264Z,0
2018-09-20T03:16:31.838Z,0
2018-09-20T03:17:41.681Z,0
2018-09-20T03:18:51.790Z,0
2018-09-20T03:20:01.901Z,0
2018-09-20T03:21:11.754Z,0
2018-09-20T03:22:21.875Z,0
2018-09-20T03:23:31.993Z,0
2018-09-20T03:24:41.846Z,0
2018-09-20T03:25:51.423Z,0
2018-09-20T03:27:01.274Z,0
2018-09-20T03:28:10.581Z,0
2018-09-20T03:29:20.183Z,0
2018-09-20T03:30:30.414Z,0
2018-09-20T03:31:40.404Z,0
2018-09-20T03:32:50.535Z,0
2018-09-20T03:34:00.664Z,0
2018-09-20T03:35:10.843Z,0
2018-09-20T03:36:20.694Z,0
2018-09-20T03:37:30.283Z,0
2018-09-20T03:38:40.401Z,0
2018-09-20T03:39:50.284Z,0
2018-09-20T03:41:00.414Z,0
2018-09-20T03:42:10.528Z,0
2018-09-20T03:43:20.095Z,0
2018-09-20T03:44:30.206Z,0
2018-09-20T03:45:40.012Z,0
2018-09-20T03:46:50.171Z,0
2018-09-20T03:47:59.764Z,0
2018-09-20T03:49:09.642Z,0
2018-09-20T03:50:19.483Z,0
2018-09-20T03:51:29.332Z,0
2018-09-20T03:52:39.245Z,0
2018-09-20T03:53:49.095Z,0
2018-09-20T03:54:58.662Z,0
2018-09-20T03:56:08.509Z,0
2018-09-20T03:57:18.354Z,0
2018-09-20T03:58:28.469Z,0
2018-09-20T03:59:38.363Z,0
2018-09-20T04:00:48.486Z,0
2018-09-20T04:01:58.049Z,0
2018-09-20T04:03:07.646Z,0
2018-09-20T04:04:17.813Z,0
2018-09-20T04:05:27.114Z,0
2018-09-20T04:06:37.237Z,0
2018-09-20T04:07:47.414Z,0
2018-09-20T04:08:57.289Z,0
2018-09-20T04:10:07.213Z,0
2018-09-20T04:11:16.794Z,0
2018-09-20T04:12:26.418Z,0
2018-09-20T04:13:36.534Z,0
2018-09-20T04:14:46.105Z,0
2018-09-20T04:15:55.678Z,0
2018-09-20T04:17:05.721Z,0
2018-09-20T04:18:15.866Z,0
2018-09-20T04:19:25.444Z,0
2018-09-20T04:20:35.300Z,0
2018-09-20T04:21:45.141Z,0
2018-09-20T04:22:55.261Z,0
2018-09-20T04:24:05.127Z,0
2018-09-20T04:25:14.967Z,0
2018-09-20T04:26:24.549Z,0
2018-09-20T04:27:34.434Z,0
2018-09-20T04:28:44.290Z,0
2018-09-20T04:29:54.216Z,0
2018-09-20T04:31:03.497Z,0
2018-09-20T04:32:13.384Z,0
2018-09-20T04:33:22.959Z,0
2018-09-20T04:34:32.536Z,0
2018-09-20T04:35:42.414Z,0
2018-09-20T04:36:51.988Z,0
2018-09-20T04:38:01.567Z,4
2018-09-20T04:39:11.408Z,4
2018-09-20T04:40:20.978Z,0
2018-09-20T04:41:31.145Z,4
2018-09-20T04:42:41.073Z,8
2018-09-20T04:43:50.915Z,4
2018-09-20T04:45:00.768Z,4
2018-09-20T04:46:10.618Z,8
2018-09-20T04:47:20.733Z,12
2018-09-20T04:48:29.760Z,12
2018-09-20T04:49:39.063Z,16
2018-09-20T04:50:48.638Z,16
2018-09-20T04:51:58.989Z,20
2018-09-20T04:53:09.129Z,24
2018-09-20T04:54:19.379Z,28
2018-09-20T04:55:29.268Z,36
2018-09-20T04:56:39.113Z,40
2018-09-20T04:57:48.688Z,48
2018-09-20T04:58:57.989Z,56
2018-09-20T05:00:07.870Z,64
2018-09-20T05:01:18.050Z,76
2018-09-20T05:02:27.891Z,84
2018-09-20T05:03:38.010Z,96
2018-09-20T05:04:47.587Z,112
2018-09-20T05:05:57.699Z,124
2018-09-20T05:07:07.812Z,140
2018-09-20T05:08:17.380Z,160
2018-09-20T05:09:27.080Z,176
2018-09-20T05:10:37.349Z,196
2018-09-20T05:11:47.188Z,216
2018-09-20T05:12:57.310Z,240
2018-09-20T05:14:06.612Z,268
2018-09-20T05:15:16.655Z,300
2018-09-20T05:16:26.465Z,336
2018-09-20T05:17:36.035Z,368
2018-09-20T05:18:45.874Z,396
2018-09-20T05:19:55.986Z,436
2018-09-20T05:21:05.855Z,492
2018-09-20T05:22:15.722Z,536
2018-09-20T05:23:25.573Z,556
2018-09-20T05:24:35.483Z,584
2018-09-20T05:25:44.845Z,612
2018-09-20T05:26:54.415Z,636
2018-09-20T05:28:04.048Z,664
2018-09-20T05:29:14.200Z,692
2018-09-20T05:30:24.312Z,724
2018-09-20T05:31:33.617Z,752
2018-09-20T05:32:43.462Z,780
2018-09-20T05:33:53.301Z,808
2018-09-20T05:35:03.157Z,836
2018-09-20T05:36:12.467Z,868
2018-09-20T05:37:22.581Z,896
2018-09-20T05:38:32.432Z,920
2018-09-20T05:39:42.303Z,948
2018-09-20T05:40:52.139Z,972
2018-09-20T05:42:01.446Z,1008
2018-09-20T05:43:11.647Z,1048
2018-09-20T05:44:21.455Z,1092
2018-09-20T05:45:31.599Z,1120
2018-09-20T05:46:41.714Z,1148
2018-09-20T05:47:51.581Z,1188
2018-09-20T05:49:01.722Z,1228
2018-09-20T05:50:11.295Z,1268
2018-09-20T05:51:20.607Z,1308
2018-09-20T05:52:30.179Z,1340
2018-09-20T05:53:40.024Z,1384
2018-09-20T05:54:50.142Z,1416
2018-09-20T05:55:59.978Z,1500
2018-09-20T05:57:10.096Z,1644
2018-09-20T05:58:20.204Z,1796
2018-09-20T05:59:29.503Z,1836
2018-09-20T06:00:39.038Z,1888
2018-09-20T06:01:48.877Z,2072
2018-09-20T06:02:58.729Z,2104
2018-09-20T06:04:08.030Z,2164
2018-09-20T06:05:18.164Z,2136
2018-09-20T06:06:27.740Z,1996
2018-09-20T06:07:37.575Z,1952
2018-09-20T06:08:47.450Z,1944
2018-09-20T06:09:57.286Z,1908
2018-09-20T06:11:06.581Z,1904
2018-09-20T06:12:16.151Z,1912
2018-09-20T06:13:25.949Z,1908
2018-09-20T06:14:35.517Z,1928
2018-09-20T06:15:45.624Z,1928
2018-09-20T06:16:55.767Z,2004
2018-09-20T06:18:05.609Z,2020
2018-09-20T06:19:15.183Z,2028
2018-09-20T06:20:25.257Z,2052
2018-09-20T06:21:34.589Z,2072
2018-09-20T06:22:44.770Z,2108
2018-09-20T06:23:54.125Z,2236
2018-09-20T06:25:03.972Z,2356
2018-09-20T06:26:13.815Z,2496
2018-09-20T06:27:23.117Z,2516
2018-09-20T06:28:32.992Z,2516
2018-09-20T06:29:43.106Z,2384
2018-09-20T06:30:52.984Z,2268
2018-09-20T06:32:03.099Z,2264
2018-09-20T06:33:12.970Z,2280
2018-09-20T06:34:23.321Z,2308
2018-09-20T06:35:32.898Z,2368
2018-09-20T06:36:42.189Z,2416
2018-09-20T06:37:52.080Z,2504
2018-09-20T06:39:01.956Z,2452
2018-09-20T06:40:11.809Z,2464
2018-09-20T06:41:21.664Z,2560
2018-09-20T06:42:31.557Z,2532
2018-09-20T06:43:41.424Z,2440
2018-09-20T06:44:51.274Z,2432
2018-09-20T06:46:01.390Z,2476
2018-09-20T06:47:11.509Z,2552
2018-09-20T06:48:21.129Z,2584
2018-09-20T06:49:31.247Z,2616
2018-09-20T06:50:41.213Z,2744
2018-09-20T06:51:51.058Z,2804
2018-09-20T06:53:00.898Z,2984
2018-09-20T06:54:10.469Z,3224
2018-09-20T06:55:20.309Z,3156
2018-09-20T06:56:29.941Z,2896
2018-09-20T06:57:40.149Z,2876
2018-09-20T06:58:50.289Z,2828
2018-09-20T07:00:00.131Z,2768
2018-09-20T07:01:10.004Z,2756
2018-09-20T07:02:19.780Z,2792
2018-09-20T07:03:30.160Z,3056
2018-09-20T07:04:40.316Z,3324
2018-09-20T07:05:50.448Z,3132
2018-09-20T07:07:00.016Z,2972
2018-09-20T07:08:09.321Z,3004
2018-09-20T07:09:18.900Z,3164
2018-09-20T07:10:28.773Z,3276
2018-09-20T07:11:38.618Z,3380
2018-09-20T07:12:48.463Z,3376
2018-09-20T07:13:58.197Z,3412
2018-09-20T07:15:08.054Z,3208
2018-09-20T07:16:17.917Z,3016
2018-09-20T07:17:27.765Z,2964
2018-09-20T07:18:36.805Z,2976
2018-09-20T07:19:46.917Z,2976
2018-09-20T07:20:57.030Z,2984
2018-09-20T07:22:07.141Z,2988
2018-09-20T07:23:16.989Z,2996
2018-09-20T07:24:26.557Z,3008
2018-09-20T07:25:36.180Z,3032
2018-09-20T07:26:45.906Z,3068
2018-09-20T07:27:56.024Z,3100
2018-09-20T07:29:06.137Z,3124
2018-09-20T07:30:16.011Z,3160
2018-09-20T07:31:25.588Z,3212
2018-09-20T07:32:35.369Z,3260
2018-09-20T07:33:45.685Z,3324
2018-09-20T07:34:55.522Z,3376
2018-09-20T07:36:05.364Z,3432
2018-09-20T07:37:15.242Z,3488
2018-09-20T07:38:25.115Z,3512
2018-09-20T07:39:34.957Z,3532
2018-09-20T07:40:45.078Z,3544
2018-09-20T07:41:54.924Z,3600
2018-09-20T07:43:04.228Z,3692
2018-09-20T07:44:14.078Z,3836
2018-09-20T07:45:23.970Z,3932
2018-09-20T07:46:33.543Z,3920
2018-09-20T07:47:43.351Z,3888
2018-09-20T07:48:53.472Z,3792
2018-09-20T07:50:03.584Z,3752
2018-09-20T07:51:13.156Z,3732
2018-09-20T07:52:22.454Z,3760
2018-09-20T07:53:32.388Z,3940
2018-09-20T07:54:42.543Z,4352
2018-09-20T07:55:52.388Z,4704
2018-09-20T07:57:02.526Z,4772
2018-09-20T07:58:12.385Z,4652
2018-09-20T07:59:21.686Z,4716
2018-09-20T08:00:31.814Z,4908
2018-09-20T08:01:42.195Z,4360
2018-09-20T08:02:52.405Z,3720
2018-09-20T08:04:01.992Z,3564
2018-09-20T08:05:11.025Z,4044
2018-09-20T08:06:20.865Z,4776
2018-09-20T08:07:30.712Z,5136
2018-09-20T08:08:40.553Z,5096
2018-09-20T08:09:50.134Z,4796
2018-09-20T08:10:59.705Z,5220
2018-09-20T08:12:09.009Z,6272
2018-09-20T08:13:18.868Z,6668
2018-09-20T08:14:28.762Z,6580
2018-09-20T08:15:38.618Z,6512
2018-09-20T08:16:48.462Z,6208
2018-09-20T08:17:58.305Z,6612
2018-09-20T08:19:08.141Z,6724
2018-09-20T08:20:18.267Z,6968
2018-09-20T08:21:28.570Z,7228
2018-09-20T08:22:38.160Z,7280
2018-09-20T08:23:48.005Z,7260
2018-09-20T08:24:57.856Z,7060
2018-09-20T08:26:07.160Z,6536
2018-09-20T08:27:16.731Z,6476
2018-09-20T08:28:26.842Z,6712
2018-09-20T08:29:36.973Z,7080
2018-09-20T08:30:46.554Z,7208
2018-09-20T08:31:56.406Z,7456
2018-09-20T08:33:06.521Z,7528
2018-09-20T08:34:16.394Z,7428
2018-09-20T08:35:26.255Z,7532
2018-09-20T08:36:35.912Z,7788
2018-09-20T08:37:46.512Z,8352
2018-09-20T08:38:56.799Z,8444
2018-09-20T08:40:06.647Z,8472
2018-09-20T08:41:16.536Z,8452
2018-09-20T08:42:27.110Z,8592
2018-09-20T08:43:36.958Z,8556
2018-09-20T08:44:46.796Z,8476
2018-09-20T08:45:56.653Z,8508
2018-09-20T08:47:05.961Z,8536
2018-09-20T08:48:15.817Z,8640
2018-09-20T08:49:25.661Z,8800
2018-09-20T08:50:35.505Z,8804
2018-09-20T08:51:45.358Z,8724
2018-09-20T08:52:55.210Z,8656
2018-09-20T08:54:05.056Z,8844
2018-09-20T08:55:15.194Z,8932
2018-09-20T08:56:24.498Z,8728
2018-09-20T08:57:34.622Z,8548
2018-09-20T08:58:44.225Z,8572
2018-09-20T08:59:54.348Z,8972
2018-09-20T09:01:03.976Z,9264
2018-09-20T09:02:13.560Z,9568
2018-09-20T09:03:22.866Z,10160
2018-09-20T09:04:33.289Z,10232
2018-09-20T09:05:43.520Z,10280
2018-09-20T09:06:53.646Z,10388
2018-09-20T09:08:03.221Z,10388
2018-09-20T09:09:13.072Z,10272
2018-09-20T09:10:23.187Z,9892
2018-09-20T09:11:33.005Z,9272
2018-09-20T09:12:42.862Z,9208
2018-09-20T09:13:52.716Z,9628
2018-09-20T09:15:02.611Z,10076
2018-09-20T09:16:12.187Z,10300
2018-09-20T09:17:22.041Z,9596
2018-09-20T09:18:31.614Z,8224
2018-09-20T09:19:41.311Z,7156
2018-09-20T09:20:50.902Z,6668
2018-09-20T09:22:00.748Z,6132
2018-09-20T09:23:10.871Z,5780
2018-09-20T09:24:20.447Z,5456
2018-09-20T09:25:30.566Z,5768
2018-09-20T09:26:40.146Z,5684
2018-09-20T09:27:50.266Z,5184
2018-09-20T09:29:00.400Z,5236
2018-09-20T09:30:09.907Z,5536
2018-09-20T09:31:20.048Z,5992
2018-09-20T09:32:29.386Z,6476
2018-09-20T09:33:39.502Z,6224
2018-09-20T09:34:48.819Z,5828
2018-09-20T09:35:58.390Z,5632
2018-09-20T09:37:08.512Z,5740
2018-09-20T09:38:17.825Z,6016
2018-09-20T09:39:27.146Z,5944
2018-09-20T09:40:36.990Z,6692
2018-09-20T09:41:47.076Z,6804
2018-09-20T09:42:56.653Z,6228
2018-09-20T09:44:06.513Z,6152
2018-09-20T09:45:16.360Z,6784
2018-09-20T09:46:26.477Z,7976
2018-09-20T09:47:35.778Z,9440
2018-09-20T09:48:45.080Z,9672
2018-09-20T09:49:54.922Z,9240
2018-09-20T09:51:04.506Z,8908
2018-09-20T09:52:14.351Z,7972
2018-09-20T09:53:24.125Z,7620
2018-09-20T09:54:34.168Z,7852
2018-09-20T09:55:43.540Z,8752
2018-09-20T09:56:53.113Z,9748
2018-09-20T09:58:02.956Z,10092
2018-09-20T09:59:12.797Z,8908
2018-09-20T10:00:21.828Z,8504
2018-09-20T10:01:31.674Z,8768
2018-09-20T10:02:41.140Z,9204
2018-09-20T10:03:51.019Z,9492
2018-09-20T10:05:00.866Z,9680
2018-09-20T10:06:09.902Z,9796
2018-09-20T10:07:19.625Z,9800
2018-09-20T10:08:29.541Z,9708
2018-09-20T10:09:38.848Z,9648
2018-09-20T10:10:48.995Z,9528
2018-09-20T10:11:59.126Z,9420
2018-09-20T10:13:08.969Z,9332
2018-09-20T10:14:19.136Z,9652
2018-09-20T10:15:29.323Z,9968
2018-09-20T10:16:38.896Z,10548
2018-09-20T10:17:48.505Z,10932
2018-09-20T10:18:58.623Z,10940
2018-09-20T10:20:08.787Z,10704
2018-09-20T10:21:18.638Z,9784
2018-09-20T10:22:28.829Z,9152
2018-09-20T10:23:38.684Z,9100
2018-09-20T10:24:48.806Z,8880
2018-09-20T10:25:58.951Z,8300
2018-09-20T10:27:09.074Z,8112
2018-09-20T10:28:18.876Z,8480
2018-09-20T10:29:28.482Z,8772
2018-09-20T10:30:38.613Z,8832
2018-09-20T10:31:48.460Z,8588
2018-09-20T10:32:57.768Z,8516
2018-09-20T10:34:08.083Z,8632
2018-09-20T10:35:17.856Z,8852
2018-09-20T10:36:27.979Z,7988
2018-09-20T10:37:37.826Z,7648
2018-09-20T10:38:47.680Z,7664
2018-09-20T10:39:57.604Z,7740
2018-09-20T10:41:07.756Z,7652
2018-09-20T10:42:17.600Z,7908
2018-09-20T10:43:27.205Z,8508
2018-09-20T10:44:36.830Z,9056
2018-09-20T10:45:46.942Z,9648
2018-09-20T10:46:56.782Z,10220
2018-09-20T10:48:06.360Z,10460
2018-09-20T10:49:15.952Z,10756
2018-09-20T10:50:25.845Z,11092
2018-09-20T10:51:35.438Z,11428
2018-09-20T10:52:45.554Z,11480
2018-09-20T10:53:55.396Z,11248
2018-09-20T10:55:04.701Z,11140
2018-09-20T10:56:14.288Z,10920
2018-09-20T10:57:24.403Z,10808
2018-09-20T10:58:34.286Z,10872
2018-09-20T10:59:43.874Z,10996
2018-09-20T11:00:53.729Z,11088
2018-09-20T11:02:03.581Z,11312
2018-09-20T11:03:14.149Z,11612
2018-09-20T11:04:23.761Z,11952
2018-09-20T11:05:33.846Z,12188
2018-09-20T11:06:43.964Z,12416
2018-09-20T11:07:53.816Z,12896
2018-09-20T11:09:03.683Z,12784
2018-09-20T11:10:13.536Z,12932
2018-09-20T11:11:23.127Z,13008
2018-09-20T11:12:33.246Z,12644
2018-09-20T11:13:42.557Z,12092
2018-09-20T11:14:52.728Z,11904
2018-09-20T11:16:02.568Z,11556
2018-09-20T11:17:12.146Z,11516
2018-09-20T11:18:21.731Z,11336
2018-09-20T11:19:31.062Z,11720
2018-09-20T11:20:40.914Z,11436
2018-09-20T11:21:50.758Z,10728
2018-09-20T11:23:00.330Z,9712
2018-09-20T11:24:09.909Z,9068
2018-09-20T11:25:19.756Z,9712
2018-09-20T11:26:29.385Z,11040
2018-09-20T11:27:39.259Z,11196
2018-09-20T11:28:49.375Z,10872
2018-09-20T11:29:59.487Z,10752
2018-09-20T11:31:09.335Z,10928
2018-09-20T11:32:19.268Z,11084
2018-09-20T11:33:29.639Z,11052
2018-09-20T11:34:39.480Z,11676
2018-09-20T11:35:49.652Z,12040
2018-09-20T11:36:59.780Z,11056
2018-09-20T11:38:08.821Z,9912
2018-09-20T11:39:18.394Z,9300
2018-09-20T11:40:27.969Z,9568
2018-09-20T11:41:38.010Z,10348
2018-09-20T11:42:47.417Z,11604
2018-09-20T11:43:57.674Z,12472
2018-09-20T11:45:07.730Z,12720
2018-09-20T11:46:17.594Z,11804
2018-09-20T11:47:27.765Z,12036
2018-09-20T11:48:37.757Z,11496
2018-09-20T11:49:47.626Z,11764
2018-09-20T11:50:57.537Z,18144
2018-09-20T11:52:07.465Z,12080
2018-09-20T11:53:17.612Z,20736
2018-09-20T11:54:27.258Z,14932
2018-09-20T11:55:37.416Z,17152
2018-09-20T11:56:47.263Z,12436
2018-09-20T11:57:57.150Z,18336
2018-09-20T11:59:06.566Z,11352
2018-09-20T12:00:16.440Z,23552
2018-09-20T12:01:26.911Z,22880
2018-09-20T12:02:37.096Z,15680
2018-09-20T12:03:46.976Z,9836
2018-09-20T12:04:57.090Z,21120
2018-09-20T12:06:06.662Z,24160
2018-09-20T12:07:16.505Z,19520
2018-09-20T12:08:26.623Z,21600
2018-09-20T12:09:36.507Z,17792
2018-09-20T12:10:46.143Z,16672
2018-09-20T12:11:55.988Z,16192
2018-09-20T12:13:05.293Z,17376
2018-09-20T12:14:14.872Z,18400
2018-09-20T12:15:24.717Z,19616
2018-09-20T12:16:34.564Z,16320
2018-09-20T12:17:44.717Z,16736
2018-09-20T12:18:54.594Z,17792
2018-09-20T12:20:05.046Z,18176
2018-09-20T12:21:14.985Z,19232
2018-09-20T12:22:24.025Z,17280
2018-09-20T12:23:34.136Z,18112
2018-09-20T12:24:43.724Z,18176
2018-09-20T12:25:53.693Z,14920
2018-09-20T12:27:03.679Z,13676
2018-09-20T12:28:13.795Z,11336
2018-09-20T12:29:24.059Z,10088
2018-09-20T12:30:33.706Z,8436
2018-09-20T12:31:43.543Z,10692
2018-09-20T12:32:53.973Z,10456
2018-09-20T12:34:03.634Z,12180
2018-09-20T12:35:13.486Z,13400
2018-09-20T12:36:23.699Z,13440
2018-09-20T12:37:33.619Z,12196
2018-09-20T12:38:44.016Z,14140
2018-09-20T12:39:54.015Z,13056
2018-09-20T12:41:04.209Z,13440
2018-09-20T12:42:14.140Z,11852
2018-09-20T12:43:24.546Z,11248
2018-09-20T12:44:34.020Z,11780
2018-09-20T12:45:44.045Z,11820
2018-09-20T12:46:54.045Z,18144
2018-09-20T12:48:04.135Z,20864
2018-09-20T12:49:14.390Z,12084
2018-09-20T12:50:24.313Z,18880
2018-09-20T12:51:34.489Z,11640
2018-09-20T12:52:44.461Z,12604
2018-09-20T12:53:54.724Z,18560
2018-09-20T12:55:04.153Z,11768
2018-09-20T12:56:14.188Z,13020
2018-09-20T12:57:23.667Z,11988
2018-09-20T12:58:33.338Z,11464
2018-09-20T12:59:42.979Z,10292
2018-09-20T13:00:52.880Z,8252
2018-09-20T13:02:03.250Z,9212
2018-09-20T13:03:13.060Z,9764
2018-09-20T13:04:23.061Z,8340
2018-09-20T13:05:32.535Z,9900
2018-09-20T13:06:42.213Z,10848
2018-09-20T13:07:52.138Z,9304
2018-09-20T13:09:01.971Z,9424
2018-09-20T13:10:11.924Z,10764
2018-09-20T13:11:21.880Z,11444
2018-09-20T13:12:31.920Z,14432
2018-09-20T13:13:42.113Z,12540
2018-09-20T13:14:51.822Z,11764
2018-09-20T13:16:02.011Z,12600
2018-09-20T13:17:11.358Z,12924
2018-09-20T13:18:21.268Z,15628
2018-09-20T13:19:30.699Z,13844
2018-09-20T13:20:40.942Z,9576
2018-09-20T13:21:50.647Z,8552
2018-09-20T13:23:00.361Z,8068
2018-09-20T13:24:09.992Z,8244
2018-09-20T13:25:20.039Z,8488
2018-09-20T13:26:30.510Z,9156
2018-09-20T13:27:40.761Z,8956
2018-09-20T13:28:50.757Z,9124
2018-09-20T13:30:00.816Z,9088
2018-09-20T13:31:10.338Z,8312
2018-09-20T13:32:20.339Z,7924
2018-09-20T13:33:30.266Z,7792
2018-09-20T13:34:40.441Z,7872
2018-09-20T13:35:50.643Z,7640
2018-09-20T13:37:00.646Z,8596
2018-09-20T13:38:10.660Z,9732
2018-09-20T13:39:20.352Z,15764
2018-09-20T13:40:30.319Z,10568
2018-09-20T13:41:40.266Z,10868
2018-09-20T13:42:50.476Z,11976
2018-09-20T13:44:00.102Z,10636
2018-09-20T13:45:09.778Z,11008
2018-09-20T13:46:19.747Z,19584
2018-09-20T13:47:29.488Z,9872
2018-09-20T13:48:39.820Z,8816
2018-09-20T13:49:50.138Z,10200
2018-09-20T13:50:59.909Z,11540
2018-09-20T13:52:09.264Z,12192
2018-09-20T13:53:19.455Z,20864
2018-09-20T13:54:29.414Z,39744
2018-09-20T13:55:39.654Z,64896
2018-09-20T13:56:49.157Z,66528
2018-09-20T13:57:58.850Z,63456
2018-09-20T13:59:08.815Z,57568
2018-09-20T14:00:18.799Z,59424
2018-09-20T14:01:28.156Z,60096
2018-09-20T14:02:38.429Z,32192
2018-09-20T14:03:48.934Z,40352
2018-09-20T14:04:58.932Z,38976
2018-09-20T14:06:09.470Z,64672
2018-09-20T14:07:19.169Z,63264
2018-09-20T14:08:29.397Z,33216
2018-09-20T14:09:39.034Z,60512
2018-09-20T14:10:48.984Z,9780
2018-09-20T14:11:59.503Z,17216
2018-09-20T14:13:09.450Z,28448
2018-09-20T14:14:19.135Z,32160
2018-09-20T14:15:28.984Z,34592
2018-09-20T14:16:39.292Z,44736
2018-09-20T14:17:49.197Z,7664
2018-09-20T14:18:58.874Z,13388
2018-09-20T14:20:08.804Z,57824
2018-09-20T14:21:18.448Z,73248
2018-09-20T14:22:28.140Z,73472
2018-09-20T14:23:38.455Z,70432
2018-09-20T14:24:48.421Z,16480
2018-09-20T14:25:58.331Z,51296
2018-09-20T14:27:08.986Z,12776
2018-09-20T14:28:18.504Z,13548
2018-09-20T14:29:28.828Z,25344
2018-09-20T14:30:38.917Z,16400
2018-09-20T14:31:49.161Z,34400
2018-09-20T14:32:59.074Z,14132
2018-09-20T14:34:08.425Z,8820
2018-09-20T14:35:18.408Z,7176
2018-09-20T14:36:27.827Z,7296
2018-09-20T14:37:38.096Z,7388
2018-09-20T14:38:48.155Z,7080
2018-09-20T14:39:58.393Z,7564
2018-09-20T14:41:08.587Z,8052
2018-09-20T14:42:18.767Z,7696
2018-09-20T14:43:28.435Z,7408
2018-09-20T14:44:38.419Z,6728
2018-09-20T14:45:48.374Z,6464
2018-09-20T14:46:58.378Z,9764
2018-09-20T14:48:08.614Z,11616
2018-09-20T14:49:18.248Z,12176
2018-09-20T14:50:27.889Z,14424
2018-09-20T14:51:37.580Z,14916
2018-09-20T14:52:48.197Z,11988
2018-09-20T14:53:58.267Z,14224
2018-09-20T14:55:08.266Z,14528
2018-09-20T14:56:18.013Z,21568
2018-09-20T14:57:28.299Z,9256
2018-09-20T14:58:38.293Z,9312
2018-09-20T14:59:48.337Z,8400
2018-09-20T15:00:58.013Z,6336
2018-09-20T15:02:08.552Z,6316
2018-09-20T15:03:18.636Z,6680
2018-09-20T15:04:28.896Z,9648
2018-09-20T15:05:39.137Z,8412
2018-09-20T15:06:49.333Z,9708
2018-09-20T15:07:59.303Z,13124
2018-09-20T15:09:09.293Z,9240
2018-09-20T15:10:19.561Z,9340
2018-09-20T15:11:29.892Z,8996
2018-09-20T15:12:40.133Z,9356
2018-09-20T15:13:50.035Z,9484
2018-09-20T15:14:59.912Z,6888
2018-09-20T15:16:09.902Z,7060
2018-09-20T15:17:19.348Z,7216
2018-09-20T15:18:29.214Z,7168
2018-09-20T15:19:38.877Z,7040
2018-09-20T15:20:48.879Z,7720
2018-09-20T15:21:59.107Z,8444
2018-09-20T15:23:08.743Z,11556
2018-09-20T15:24:18.952Z,21312
2018-09-20T15:25:28.467Z,43520
2018-09-20T15:26:38.217Z,37024
2018-09-20T15:27:47.872Z,23680
2018-09-20T15:28:57.496Z,27296
2018-09-20T15:30:07.745Z,25216
2018-09-20T15:31:17.462Z,12388
2018-09-20T15:32:27.299Z,11528
2018-09-20T15:33:37.637Z,16320
2018-09-20T15:34:47.576Z,34976
2018-09-20T15:35:57.233Z,26496
2018-09-20T15:37:06.862Z,41856
2018-09-20T15:38:17.130Z,49600
2018-09-20T15:39:27.114Z,49408
2018-09-20T15:40:36.823Z,46912
2018-09-20T15:41:46.273Z,35424
2018-09-20T15:42:56.002Z,23456
2018-09-20T15:44:05.636Z,19168
2018-09-20T15:45:15.273Z,10568
2018-09-20T15:46:25.442Z,14952
2018-09-20T15:47:35.514Z,23648
2018-09-20T15:48:45.827Z,18592
2018-09-20T15:49:56.050Z,10464
2018-09-20T15:51:05.779Z,7352
2018-09-20T15:52:15.154Z,12648
2018-09-20T15:53:24.837Z,13328